Time;durP1;ratioP1;P1;durP2;ratioP2;P2;SDS_P1;SDS_P2;PMS_P1;PMS_P2;Temp;Humidity;BMP_temperature;BMP_pressure;BME280_temperature;BME280_humidity;BME280_pressure;Samples;Min_cycle;Max_cycle;Signal;HPM_P1;HPM_P2
2022/10/15 00:01:08;;;;;;;3.03;2.15;;;16.60;77.80;;;;;;5089431;28;20017;-59
2022/10/15 00:03:36;;;;;;;1.83;1.60;;;16.60;78.20;;;;;;5089494;28;20073;-61
2022/10/15 00:06:07;;;;;;;1.85;1.50;;;16.60;77.90;;;;;;5089561;28;20024;-60
2022/10/15 00:08:33;;;;;;;1.70;1.10;;;16.60;78.00;;;;;;5089055;28;20084;-60
2022/10/15 00:11:08;;;;;;;5.20;1.70;;;16.60;77.80;;;;;;5089368;28;20025;-60
2022/10/15 00:13:34;;;;;;;8.15;3.97;;;16.60;78.20;;;;;;5089279;28;20075;-60
2022/10/15 00:16:00;;;;;;;5.20;3.10;;;16.60;77.80;;;;;;5089171;28;20047;-60
2022/10/15 00:18:26;;;;;;;2.97;2.25;;;16.60;78.00;;;;;;5089047;28;20036;-59
2022/10/15 00:20:53;;;;;;;2.90;2.38;;;16.60;78.00;;;;;;5089191;28;20024;-60
2022/10/15 00:23:19;;;;;;;3.80;2.45;;;16.60;78.00;;;;;;5088745;28;20407;-60
2022/10/15 00:25:44;;;;;;;8.23;3.58;;;16.60;78.10;;;;;;5088966;28;20024;-60
2022/10/15 00:28:10;;;;;;;4.65;2.95;;;16.60;78.20;;;;;;5088983;28;20036;-60
2022/10/15 00:30:36;;;;;;;10.80;5.20;;;16.60;78.00;;;;;;5088847;28;20021;-59
2022/10/15 00:33:01;;;;;;;5.25;2.90;;;16.60;78.20;;;;;;5089098;28;20029;-61
2022/10/15 00:35:27;;;;;;;7.75;3.38;;;16.60;78.20;;;;;;5088778;28;20028;-61
2022/10/15 00:37:53;;;;;;;7.40;4.18;;;16.60;78.20;;;;;;5088538;28;20024;-59
2022/10/15 00:40:19;;;;;;;5.90;3.67;;;16.60;78.20;;;;;;5088773;28;20029;-59
2022/10/15 00:42:44;;;;;;;4.38;2.88;;;16.60;78.40;;;;;;5088689;28;20024;-61
2022/10/15 00:45:13;;;;;;;3.20;2.00;;;16.50;78.30;;;;;;5070744;28;20436;-61
2022/10/15 00:47:43;;;;;;;1.67;1.27;;;16.60;78.50;;;;;;5088675;28;20047;-61
2022/10/15 00:50:08;;;;;;;1.20;1.10;;;16.50;78.40;;;;;;5088486;28;20035;-59
2022/10/15 00:52:46;;;;;;;1.65;0.90;;;16.60;78.30;;;;;;5088320;28;20127;-61
2022/10/15 00:55:14;;;;;;;1.80;1.00;;;16.60;78.80;;;;;;5088511;28;20037;-59
2022/10/15 00:57:41;;;;;;;1.10;0.80;;;16.60;78.40;;;;;;5088356;28;20039;-61
2022/10/15 01:00:10;;;;;;;1.05;0.90;;;16.60;78.40;;;;;;5070202;28;20017;-60
2022/10/15 01:02:36;;;;;;;0.70;0.60;;;16.60;78.50;;;;;;5088196;28;20044;-60
2022/10/15 01:05:02;;;;;;;0.50;0.50;;;16.60;78.30;;;;;;5088092;28;20032;-60
2022/10/15 01:07:28;;;;;;;0.50;0.50;;;16.60;78.40;;;;;;5088287;28;20017;-59
2022/10/15 01:09:54;;;;;;;0.43;0.43;;;16.60;78.50;;;;;;5088278;28;20028;-61
2022/10/15 01:12:38;;;;;;;1.20;0.40;;;16.60;78.50;;;;;;5088036;28;20024;-60
2022/10/15 01:15:13;;;;;;;0.50;0.50;;;16.60;78.80;;;;;;5088158;28;20037;-61
2022/10/15 01:17:47;;;;;;;2.83;0.50;;;16.60;78.60;;;;;;5088138;28;20024;-60
2022/10/15 01:20:38;;;;;;;4.00;0.50;;;16.60;78.10;;;;;;5088030;28;20047;-61
2022/10/15 01:23:03;;;;;;;2.55;0.50;;;16.60;78.60;;;;;;5088181;28;20036;-60
2022/10/15 01:25:35;;;;;;;0.30;0.30;;;16.60;78.30;;;;;;5087919;28;20029;-59
2022/10/15 01:28:38;;;;;;;2.72;0.90;;;16.60;78.70;;;;;;5087800;28;20032;-60
2022/10/15 01:31:27;;;;;;;0.80;0.60;;;16.60;79.10;;;;;;5087962;28;20032;-60
2022/10/15 01:34:15;;;;;;;2.47;0.80;;;16.60;78.80;;;;;;5087673;28;20028;-61
2022/10/15 01:37:10;;;;;;;0.80;0.63;;;16.60;78.60;;;;;;5087584;28;20131;-62
2022/10/15 01:39:43;;;;;;;1.48;0.50;;;16.60;79.10;;;;;;5087539;28;20029;-61
2022/10/15 01:42:41;;;;;;;0.75;0.70;;;16.60;78.70;;;;;;5069114;28;20035;-59
2022/10/15 01:45:11;;;;;;;1.05;0.50;;;16.60;79.30;;;;;;5059449;28;20047;-59
2022/10/15 01:47:54;;;;;;;3.25;1.50;;;16.60;78.60;;;;;;5087063;28;20087;-60
2022/10/15 01:50:24;;;;;;;0.40;0.40;;;16.60;78.70;;;;;;5087015;28;20051;-60
2022/10/15 01:52:51;;;;;;;0.63;0.50;;;16.60;78.50;;;;;;5066914;28;20076;-61
2022/10/15 01:55:20;;;;;;;2.53;0.50;;;16.60;78.50;;;;;;5067245;28;20060;-60
2022/10/15 01:57:47;;;;;;;0.45;0.45;;;16.60;78.60;;;;;;5066468;28;20032;-59
2022/10/15 02:00:13;;;;;;;0.77;0.50;;;16.60;78.60;;;;;;5067250;28;20108;-59
2022/10/15 02:02:38;;;;;;;0.50;0.50;;;16.60;78.70;;;;;;5067175;28;20021;-61
2022/10/15 02:05:07;;;;;;;0.55;0.45;;;16.60;78.80;;;;;;5066821;28;20525;-60
2022/10/15 02:07:36;;;;;;;0.47;0.43;;;16.60;78.90;;;;;;5067115;28;20021;-60
2022/10/15 02:10:18;;;;;;;0.40;0.40;;;16.70;78.90;;;;;;5067104;28;20047;-60
2022/10/15 02:13:02;;;;;;;0.63;0.50;;;16.60;79.40;;;;;;5067233;28;20502;-59
2022/10/15 02:15:30;;;;;;;0.40;0.40;;;16.60;79.50;;;;;;5066865;28;20037;-60
2022/10/15 02:18:19;;;;;;;0.40;0.40;;;16.70;78.90;;;;;;5066597;28;20025;-60
2022/10/15 02:20:55;;;;;;;0.70;0.40;;;16.70;79.50;;;;;;5066856;28;20029;-59
2022/10/15 02:23:35;;;;;;;0.50;0.43;;;16.70;79.10;;;;;;5066891;28;20017;-59
2022/10/15 02:26:05;;;;;;;1.48;0.50;;;16.70;79.10;;;;;;5066859;28;20028;-60
2022/10/15 02:28:34;;;;;;;0.43;0.43;;;16.70;79.10;;;;;;5066767;28;20025;-59
2022/10/15 02:31:02;;;;;;;0.88;0.43;;;16.70;79.20;;;;;;5048522;28;20028;-61
2022/10/15 02:33:30;;;;;;;2.92;0.50;;;16.70;79.30;;;;;;5066288;28;20021;-59
2022/10/15 02:35:57;;;;;;;2.05;0.80;;;16.70;79.20;;;;;;5066357;28;20025;-61
2022/10/15 02:38:26;;;;;;;0.57;0.57;;;16.70;79.20;;;;;;5066331;28;20036;-60
2022/10/15 02:40:53;;;;;;;0.70;0.68;;;16.70;79.20;;;;;;5066601;28;20033;-60
2022/10/15 02:43:21;;;;;;;0.70;0.40;;;16.70;79.30;;;;;;5066276;28;20025;-59
2022/10/15 02:45:48;;;;;;;1.20;0.52;;;16.70;79.30;;;;;;5066259;28;20017;-61
2022/10/15 02:48:14;;;;;;;0.40;0.40;;;16.70;79.50;;;;;;5066397;28;20049;-60
2022/10/15 02:50:40;;;;;;;0.65;0.50;;;16.70;79.50;;;;;;5067860;28;20060;-60
2022/10/15 02:53:05;;;;;;;0.95;0.50;;;16.70;79.50;;;;;;5086018;28;20028;-60
2022/10/15 02:55:31;;;;;;;3.90;0.50;;;16.70;79.50;;;;;;5086259;28;20043;-61
2022/10/15 02:57:57;;;;;;;0.30;0.30;;;16.70;79.50;;;;;;5086028;28;20024;-60
2022/10/15 03:00:23;;;;;;;0.30;0.30;;;16.70;79.50;;;;;;5086270;28;20028;-59
2022/10/15 03:02:48;;;;;;;1.58;0.40;;;16.80;79.60;;;;;;5085864;28;20028;-61
2022/10/15 03:05:14;;;;;;;0.40;0.40;;;16.70;79.30;;;;;;5085942;28;20024;-59
2022/10/15 03:07:40;;;;;;;0.38;0.38;;;16.70;79.50;;;;;;5085538;28;20103;-60
2022/10/15 03:10:06;;;;;;;0.50;0.50;;;16.80;79.50;;;;;;5085677;28;20040;-59
2022/10/15 03:12:32;;;;;;;0.50;0.50;;;16.80;79.50;;;;;;5085923;28;20021;-60
2022/10/15 03:14:58;;;;;;;0.60;0.50;;;16.70;79.50;;;;;;5085932;28;20043;-61
2022/10/15 03:17:23;;;;;;;1.27;0.40;;;16.80;79.50;;;;;;5067660;28;20103;-62
2022/10/15 03:19:49;;;;;;;0.95;0.50;;;16.80;79.60;;;;;;5086089;28;20020;-60
2022/10/15 03:22:15;;;;;;;0.40;0.40;;;16.80;79.70;;;;;;5085950;28;20107;-62
2022/10/15 03:24:40;;;;;;;1.00;0.47;;;16.80;79.70;;;;;;5085759;28;20043;-62
2022/10/15 03:27:06;;;;;;;0.50;0.50;;;16.80;79.60;;;;;;5086059;28;20062;-61
2022/10/15 03:29:32;;;;;;;0.60;0.60;;;16.80;79.60;;;;;;5085918;28;20028;-60
2022/10/15 03:31:58;;;;;;;0.50;0.50;;;16.80;79.60;;;;;;5085664;28;20029;-61
2022/10/15 03:34:24;;;;;;;0.55;0.55;;;16.80;79.50;;;;;;5085803;28;20077;-60
2022/10/15 03:36:52;;;;;;;0.60;0.60;;;16.80;79.60;;;;;;5085494;28;20078;-61
2022/10/15 03:39:18;;;;;;;0.60;0.60;;;16.80;79.70;;;;;;5085740;28;20024;-59
2022/10/15 03:41:43;;;;;;;1.27;0.70;;;16.80;79.70;;;;;;5085565;28;20040;-61
2022/10/15 03:44:09;;;;;;;1.45;0.70;;;16.80;79.60;;;;;;5085624;28;20023;-60
2022/10/15 03:46:35;;;;;;;0.93;0.80;;;16.90;79.70;;;;;;5085672;28;20021;-60
2022/10/15 03:49:01;;;;;;;0.77;0.77;;;16.90;79.70;;;;;;5085712;28;20036;-60
2022/10/15 03:51:26;;;;;;;0.82;0.70;;;16.80;79.70;;;;;;5085332;28;20090;-60
2022/10/15 03:53:52;;;;;;;0.95;0.70;;;16.90;79.70;;;;;;5085583;28;20043;-60
2022/10/15 03:56:20;;;;;;;2.50;0.77;;;16.90;79.80;;;;;;5085605;28;20094;-61
2022/10/15 03:58:45;;;;;;;0.80;0.80;;;16.90;79.80;;;;;;5085721;28;20025;-60
2022/10/15 04:01:13;;;;;;;1.95;0.80;;;16.90;79.80;;;;;;5085337;28;20147;-60
2022/10/15 04:03:39;;;;;;;0.60;0.60;;;16.90;80.40;;;;;;5085468;28;20029;-60
2022/10/15 04:06:05;;;;;;;0.47;0.47;;;16.90;79.70;;;;;;5085613;28;20023;-61
2022/10/15 04:08:31;;;;;;;0.65;0.50;;;16.90;79.80;;;;;;5067310;28;20084;-60
2022/10/15 04:11:01;;;;;;;0.43;0.43;;;16.90;79.90;;;;;;5085336;28;20035;-59
2022/10/15 04:13:27;;;;;;;0.77;0.60;;;16.90;79.90;;;;;;5085250;28;20107;-61
2022/10/15 04:15:53;;;;;;;0.57;0.50;;;17.00;80.10;;;;;;5085249;28;20039;-61
2022/10/15 04:18:20;;;;;;;0.40;0.40;;;17.00;80.00;;;;;;5085681;28;20077;-59
2022/10/15 04:20:47;;;;;;;0.40;0.40;;;17.00;80.10;;;;;;5088215;28;20472;-60
2022/10/15 04:23:13;;;;;;;0.60;0.40;;;17.00;80.10;;;;;;5070859;28;20028;-60
2022/10/15 04:25:39;;;;;;;0.40;0.40;;;17.00;80.00;;;;;;5089243;28;20032;-61
2022/10/15 04:28:05;;;;;;;0.30;0.30;;;17.00;80.00;;;;;;5088719;28;20021;-60
2022/10/15 04:30:30;;;;;;;0.30;0.30;;;17.00;80.70;;;;;;5088743;28;20027;-62
2022/10/15 04:32:56;;;;;;;0.43;0.40;;;17.00;80.00;;;;;;5089031;28;20025;-60
2022/10/15 04:35:22;;;;;;;0.88;0.70;;;17.10;80.10;;;;;;5088552;28;20091;-61
2022/10/15 04:37:47;;;;;;;1.08;0.90;;;17.10;80.00;;;;;;5070663;28;20035;-60
2022/10/15 04:40:14;;;;;;;1.42;0.60;;;17.10;80.10;;;;;;5070996;28;20048;-61
2022/10/15 04:42:39;;;;;;;0.45;0.40;;;17.10;80.20;;;;;;5088480;28;20021;-60
2022/10/15 04:45:06;;;;;;;1.65;0.60;;;17.10;80.30;;;;;;5088887;28;20086;-60
2022/10/15 04:47:32;;;;;;;1.08;0.50;;;17.10;80.20;;;;;;5088646;28;20021;-60
2022/10/15 04:49:57;;;;;;;8.88;0.60;;;17.10;80.20;;;;;;5088480;28;20082;-61
2022/10/15 04:52:23;;;;;;;0.52;0.50;;;17.10;80.20;;;;;;5070683;28;20047;-59
2022/10/15 04:54:49;;;;;;;0.40;0.40;;;17.10;80.20;;;;;;5088561;28;20040;-60
2022/10/15 04:57:15;;;;;;;0.82;0.47;;;17.10;80.10;;;;;;5088410;28;20028;-60
2022/10/15 04:59:42;;;;;;;2.83;0.43;;;17.10;80.10;;;;;;5088754;28;20047;-60
2022/10/15 05:02:08;;;;;;;0.30;0.30;;;17.10;80.20;;;;;;5088320;28;20063;-61
2022/10/15 05:04:34;;;;;;;1.05;0.40;;;17.10;80.10;;;;;;5070388;28;20021;-61
2022/10/15 05:06:59;;;;;;;1.02;0.50;;;17.10;80.10;;;;;;5088249;28;20029;-59
2022/10/15 05:09:25;;;;;;;1.23;0.40;;;17.20;80.20;;;;;;5088196;28;20035;-60
2022/10/15 05:11:50;;;;;;;0.65;0.52;;;17.20;80.30;;;;;;5088194;28;20028;-61
2022/10/15 05:14:16;;;;;;;0.95;0.38;;;17.20;80.40;;;;;;5070183;28;20036;-60
2022/10/15 05:16:42;;;;;;;0.40;0.40;;;17.20;80.40;;;;;;5088140;28;20162;-60
2022/10/15 05:19:09;;;;;;;0.50;0.50;;;17.20;80.30;;;;;;5088242;28;20020;-60
2022/10/15 05:21:36;;;;;;;0.75;0.45;;;17.20;80.40;;;;;;5087944;28;20099;-59
2022/10/15 05:24:02;;;;;;;1.20;0.50;;;17.20;80.30;;;;;;5088164;28;20035;-61
2022/10/15 05:26:28;;;;;;;1.10;0.50;;;17.20;80.40;;;;;;5087861;28;20021;-61
2022/10/15 05:28:56;;;;;;;3.90;0.50;;;17.20;80.40;;;;;;5087920;28;20032;-60
2022/10/15 05:31:24;;;;;;;0.40;0.40;;;17.20;80.40;;;;;;5087121;28;20020;-61
2022/10/15 05:33:51;;;;;;;0.40;0.40;;;17.20;81.10;;;;;;5069708;28;20059;-60
2022/10/15 05:36:23;;;;;;;1.65;0.55;;;17.20;80.40;;;;;;5087733;28;20462;-59
2022/10/15 05:38:52;;;;;;;0.85;0.40;;;17.20;80.30;;;;;;5087888;28;20028;-60
2022/10/15 05:41:18;;;;;;;2.85;0.60;;;17.20;80.40;;;;;;5087555;28;20111;-60
2022/10/15 05:43:51;;;;;;;0.55;0.40;;;17.20;80.40;;;;;;5087935;28;20032;-60
2022/10/15 05:46:18;;;;;;;0.57;0.57;;;17.30;80.70;;;;;;5087763;28;20048;-59
2022/10/15 05:48:48;;;;;;;1.30;0.70;;;17.30;80.40;;;;;;5087659;28;20055;-60
2022/10/15 05:51:14;;;;;;;0.80;0.70;;;17.30;80.40;;;;;;5087229;28;20123;-61
2022/10/15 05:53:42;;;;;;;3.20;0.63;;;17.30;80.30;;;;;;5087561;28;20028;-60
2022/10/15 05:56:08;;;;;;;0.65;0.40;;;17.30;80.30;;;;;;5087253;28;20383;-61
2022/10/15 05:58:35;;;;;;;1.17;0.40;;;17.30;80.20;;;;;;5087126;28;20025;-60
2022/10/15 06:01:03;;;;;;;0.82;0.40;;;17.40;80.20;;;;;;5087271;28;20021;-60
2022/10/15 06:03:29;;;;;;;0.57;0.50;;;17.40;80.20;;;;;;5087243;28;20085;-60
2022/10/15 06:05:55;;;;;;;0.47;0.47;;;17.40;80.20;;;;;;5087105;28;20609;-59
2022/10/15 06:08:23;;;;;;;1.50;0.70;;;17.40;80.20;;;;;;5069204;28;20021;-60
2022/10/15 06:10:49;;;;;;;4.72;0.60;;;17.40;80.20;;;;;;5086856;28;20027;-61
2022/10/15 06:13:15;;;;;;;1.65;0.52;;;17.40;80.00;;;;;;5086741;28;20047;-62
2022/10/15 06:15:43;;;;;;;0.40;0.40;;;17.40;80.00;;;;;;5087155;28;20032;-60
2022/10/15 06:18:10;;;;;;;0.55;0.50;;;17.40;80.00;;;;;;5086825;28;20024;-61
2022/10/15 06:20:36;;;;;;;2.17;0.60;;;17.40;79.90;;;;;;5086877;28;20021;-60
2022/10/15 06:23:04;;;;;;;0.45;0.40;;;17.50;79.80;;;;;;5086894;28;20039;-61
2022/10/15 06:25:30;;;;;;;1.95;0.70;;;17.40;79.80;;;;;;5086757;28;20023;-61
2022/10/15 06:28:00;;;;;;;0.75;0.38;;;17.40;79.80;;;;;;5086812;28;20041;-61
2022/10/15 06:30:26;;;;;;;0.50;0.40;;;17.50;80.00;;;;;;5086928;28;20050;-62
2022/10/15 06:32:53;;;;;;;0.75;0.38;;;17.50;79.80;;;;;;5086599;28;20024;-61
2022/10/15 06:35:21;;;;;;;0.52;0.52;;;17.50;79.90;;;;;;5086604;28;20479;-61
2022/10/15 06:37:47;;;;;;;0.57;0.40;;;17.50;80.00;;;;;;5086522;28;20025;-61
2022/10/15 06:40:13;;;;;;;1.33;0.40;;;17.50;80.00;;;;;;5086201;28;20029;-61
2022/10/15 06:42:39;;;;;;;0.50;0.47;;;17.50;79.80;;;;;;5086401;28;20025;-63
2022/10/15 06:45:06;;;;;;;0.30;0.30;;;17.60;79.90;;;;;;5086364;28;20028;-60
2022/10/15 06:47:32;;;;;;;2.05;0.40;;;17.60;79.90;;;;;;5086449;28;20031;-60
2022/10/15 06:49:57;;;;;;;1.67;0.57;;;17.60;79.80;;;;;;5086526;28;20021;-61
2022/10/15 06:52:24;;;;;;;0.95;0.50;;;17.60;79.70;;;;;;5086040;28;20048;-60
2022/10/15 06:54:50;;;;;;;1.83;0.43;;;17.70;79.80;;;;;;5085906;28;20070;-61
2022/10/15 06:57:16;;;;;;;0.43;0.40;;;17.70;79.50;;;;;;5086236;28;20084;-60
2022/10/15 06:59:41;;;;;;;0.93;0.50;;;17.70;79.30;;;;;;5086167;28;20056;-60
2022/10/15 07:02:12;;;;;;;0.50;0.50;;;17.70;79.30;;;;;;5068314;28;20059;-61
2022/10/15 07:04:38;;;;;;;0.50;0.50;;;17.70;79.10;;;;;;5086091;28;20367;-61
2022/10/15 07:07:04;;;;;;;0.30;0.30;;;17.80;79.10;;;;;;5086089;28;20044;-60
2022/10/15 07:09:30;;;;;;;2.42;0.40;;;17.80;78.90;;;;;;5086056;28;20025;-59
2022/10/15 07:11:55;;;;;;;0.65;0.55;;;17.80;78.90;;;;;;5086025;28;20050;-62
2022/10/15 07:14:21;;;;;;;1.33;0.50;;;17.80;79.00;;;;;;5085974;28;20149;-60
2022/10/15 07:16:47;;;;;;;0.77;0.50;;;17.70;78.90;;;;;;5086135;28;20031;-61
2022/10/15 07:19:13;;;;;;;0.80;0.57;;;17.80;78.90;;;;;;5085906;28;20043;-60
2022/10/15 07:21:39;;;;;;;2.58;0.70;;;17.80;79.00;;;;;;5086188;28;20021;-61
2022/10/15 07:24:05;;;;;;;2.60;0.50;;;17.90;79.00;;;;;;5085602;28;20029;-60
2022/10/15 07:26:30;;;;;;;0.70;0.40;;;17.90;78.90;;;;;;5085810;28;20031;-61
2022/10/15 07:28:56;;;;;;;2.30;0.40;;;17.90;78.80;;;;;;5067284;28;20040;-61
2022/10/15 07:31:22;;;;;;;1.95;0.43;;;18.00;78.50;;;;;;5085698;28;20039;-61
2022/10/15 07:33:48;;;;;;;0.82;0.50;;;18.00;78.30;;;;;;5085667;28;20100;-60
2022/10/15 07:36:14;;;;;;;2.88;0.50;;;18.00;77.90;;;;;;5085715;28;20031;-60
2022/10/15 07:38:40;;;;;;;2.10;0.60;;;18.00;77.80;;;;;;5085351;28;20052;-60
2022/10/15 07:41:07;;;;;;;2.55;0.40;;;18.00;77.60;;;;;;5067706;28;20024;-60
2022/10/15 07:43:34;;;;;;;1.30;0.60;;;18.00;77.60;;;;;;5085560;28;20020;-61
2022/10/15 07:46:00;;;;;;;2.30;0.95;;;18.00;77.60;;;;;;5067408;28;20021;-60
2022/10/15 07:48:26;;;;;;;0.95;0.47;;;18.00;77.40;;;;;;5085710;28;20028;-60
2022/10/15 07:51:00;;;;;;;1.30;0.47;;;18.00;77.30;;;;;;5085455;28;20029;-61
2022/10/15 07:53:26;;;;;;;0.60;0.45;;;18.00;77.20;;;;;;5085478;28;20068;-62
2022/10/15 07:55:52;;;;;;;0.50;0.50;;;18.10;77.40;;;;;;5088761;28;20044;-60
2022/10/15 07:58:18;;;;;;;1.05;0.45;;;18.10;77.10;;;;;;5089538;28;20027;-61
2022/10/15 08:00:44;;;;;;;1.10;0.30;;;18.20;77.00;;;;;;5089486;28;20088;-60
2022/10/15 08:03:10;;;;;;;1.40;0.40;;;18.20;76.90;;;;;;5089451;28;20021;-60
2022/10/15 08:05:36;;;;;;;0.30;0.30;;;18.30;76.80;;;;;;5071009;28;20356;-59
2022/10/15 08:08:02;;;;;;;1.02;0.40;;;18.30;77.20;;;;;;5089470;28;20108;-61
2022/10/15 08:10:28;;;;;;;0.40;0.40;;;18.40;77.30;;;;;;5089375;28;20476;-62
2022/10/15 08:12:53;;;;;;;2.45;0.40;;;18.50;77.40;;;;;;5089306;28;20127;-60
2022/10/15 08:15:19;;;;;;;0.70;0.40;;;18.70;77.00;;;;;;5089259;28;20052;-61
2022/10/15 08:17:45;;;;;;;0.57;0.35;;;18.80;76.30;;;;;;5089098;28;20039;-61
2022/10/15 08:20:11;;;;;;;3.05;0.30;;;18.90;75.60;;;;;;5088816;28;20021;-60
2022/10/15 08:22:37;;;;;;;0.90;0.38;;;18.90;75.40;;;;;;5071138;28;20020;-59
2022/10/15 08:25:03;;;;;;;0.95;0.50;;;19.00;75.30;;;;;;5088819;28;20055;-61
2022/10/15 08:27:29;;;;;;;0.30;0.30;;;19.10;75.40;;;;;;5070616;28;20048;-62
2022/10/15 08:29:55;;;;;;;1.17;0.43;;;19.10;74.90;;;;;;5088958;28;20028;-60
2022/10/15 08:32:20;;;;;;;1.45;0.40;;;19.20;74.50;;;;;;5088865;28;20107;-61
2022/10/15 08:34:46;;;;;;;0.47;0.35;;;19.20;74.20;;;;;;5088454;28;20036;-61
2022/10/15 08:37:12;;;;;;;1.40;0.50;;;19.20;73.90;;;;;;5088778;28;20029;-61
2022/10/15 08:39:37;;;;;;;1.17;0.45;;;19.20;74.10;;;;;;5088671;28;20063;-60
2022/10/15 08:42:17;;;;;;;0.82;0.40;;;19.30;74.00;;;;;;5088790;28;20027;-59
2022/10/15 08:45:01;;;;;;;0.47;0.30;;;19.30;74.00;;;;;;5088682;28;20021;-60
2022/10/15 08:47:57;;;;;;;0.90;0.32;;;19.40;73.80;;;;;;5070621;28;20020;-61
2022/10/15 08:50:34;;;;;;;1.33;0.30;;;19.40;73.00;;;;;;5088621;28;20094;-60
2022/10/15 08:53:00;;;;;;;0.55;0.38;;;19.50;73.30;;;;;;5088271;28;20052;-60
2022/10/15 08:55:34;;;;;;;0.50;0.50;;;19.50;73.90;;;;;;5088558;28;20033;-60
2022/10/15 08:58:30;;;;;;;0.55;0.52;;;19.50;73.80;;;;;;5088746;28;20040;-59
2022/10/15 09:01:09;;;;;;;1.10;0.40;;;19.60;73.90;;;;;;5088411;28;20390;-60
2022/10/15 09:03:50;;;;;;;0.40;0.40;;;19.60;73.90;;;;;;5070201;28;20055;-60
2022/10/15 09:06:29;;;;;;;0.52;0.40;;;19.60;74.30;;;;;;5087098;28;20021;-59
2022/10/15 09:09:18;;;;;;;2.33;0.50;;;19.60;74.30;;;;;;5088388;28;20051;-60
2022/10/15 09:11:47;;;;;;;0.60;0.32;;;19.60;74.20;;;;;;5088329;28;20032;-61
2022/10/15 09:14:18;;;;;;;0.30;0.28;;;19.70;74.30;;;;;;5087976;28;20032;-58
2022/10/15 09:16:52;;;;;;;0.30;0.30;;;19.60;74.40;;;;;;5070213;28;20088;-59
2022/10/15 09:19:19;;;;;;;;;;;19.60;74.40;;;;;;5088567;28;20020;-61
2022/10/15 09:21:47;;;;;;;0.30;0.30;;;19.70;74.40;;;;;;5087903;28;19916;-62
2022/10/15 09:24:23;;;;;;;0.45;0.30;;;19.70;74.30;;;;;;5088011;28;20016;-59
2022/10/15 09:27:07;;;;;;;0.20;0.20;;;19.60;74.60;;;;;;5087945;28;20027;-60
2022/10/15 09:30:03;;;;;;;0.65;0.40;;;19.60;74.30;;;;;;5087947;28;20017;-60
2022/10/15 09:32:46;;;;;;;0.77;0.40;;;19.50;74.50;;;;;;5087764;28;20029;-61
2022/10/15 09:35:20;;;;;;;0.30;0.30;;;19.50;74.80;;;;;;5087414;28;20072;-60
2022/10/15 09:38:05;;;;;;;1.20;0.30;;;19.40;74.80;;;;;;5088116;28;20024;-59
2022/10/15 09:41:05;;;;;;;0.90;0.40;;;19.40;75.60;;;;;;5087821;28;20444;-61
2022/10/15 09:43:35;;;;;;;0.30;0.30;;;19.40;75.70;;;;;;5056167;28;20040;-60
2022/10/15 09:46:04;;;;;;;1.08;0.40;;;19.40;75.80;;;;;;5087794;28;20032;-61
2022/10/15 09:49:04;;;;;;;0.40;0.40;;;19.30;76.00;;;;;;5087228;28;20437;-60
2022/10/15 09:51:46;;;;;;;0.55;0.50;;;19.40;76.30;;;;;;5069367;28;20048;-60
2022/10/15 09:54:20;;;;;;;2.22;0.60;;;19.40;76.40;;;;;;5087344;28;20032;-60
2022/10/15 09:56:52;;;;;;;0.60;0.50;;;19.40;76.10;;;;;;5087359;28;20036;-60
2022/10/15 09:59:20;;;;;;;1.23;0.77;;;19.50;75.80;;;;;;5087377;28;20029;-60
2022/10/15 10:02:17;;;;;;;0.50;0.50;;;19.50;76.10;;;;;;5087159;28;20082;-61
2022/10/15 10:04:43;;;;;;;0.70;0.70;;;19.50;76.80;;;;;;5086255;28;20037;-59
2022/10/15 10:07:34;;;;;;;0.70;0.60;;;19.50;76.80;;;;;;5087332;28;20472;-60
2022/10/15 10:10:22;;;;;;;0.95;0.68;;;19.60;77.50;;;;;;5087289;28;20162;-59
2022/10/15 10:12:47;;;;;;;1.73;0.70;;;19.70;78.00;;;;;;5086720;28;20056;-60
2022/10/15 10:15:33;;;;;;;1.95;0.60;;;19.80;77.10;;;;;;5087032;28;20062;-60
2022/10/15 10:18:00;;;;;;;2.33;0.70;;;19.80;76.50;;;;;;5068889;28;20029;-60
2022/10/15 10:20:27;;;;;;;1.90;0.40;;;19.90;76.70;;;;;;5087298;28;20044;-61
2022/10/15 10:22:57;;;;;;;0.50;0.50;;;19.90;76.60;;;;;;5068970;28;20020;-59
2022/10/15 10:25:30;;;;;;;1.30;0.95;;;20.00;76.30;;;;;;5068894;28;20032;-61
2022/10/15 10:28:08;;;;;;;1.60;0.80;;;20.10;76.20;;;;;;5086793;28;20032;-61
2022/10/15 10:30:55;;;;;;;1.02;0.73;;;20.20;75.80;;;;;;5068649;28;20448;-59
2022/10/15 10:33:46;;;;;;;1.10;0.60;;;20.30;75.10;;;;;;5073253;28;20032;-59
2022/10/15 10:36:32;;;;;;;1.75;0.50;;;20.30;75.20;;;;;;5086572;28;20060;-59
2022/10/15 10:39:14;;;;;;;1.10;0.50;;;20.40;75.00;;;;;;5086861;28;20191;-61
2022/10/15 10:42:04;;;;;;;1.10;0.60;;;20.40;75.40;;;;;;5086578;28;20076;-60
2022/10/15 10:44:40;;;;;;;1.20;0.70;;;20.50;75.20;;;;;;5086691;28;20035;-60
2022/10/15 10:47:16;;;;;;;0.63;0.60;;;20.50;74.50;;;;;;5086463;28;20501;-61
2022/10/15 10:49:51;;;;;;;0.95;0.52;;;20.50;74.40;;;;;;5086195;28;20392;-60
2022/10/15 10:52:19;;;;;;;1.23;0.95;;;20.50;73.30;;;;;;5085889;28;20040;-60
2022/10/15 10:54:47;;;;;;;1.30;0.50;;;20.50;72.40;;;;;;5086315;28;20043;-61
2022/10/15 10:57:17;;;;;;;1.17;0.40;;;20.50;72.00;;;;;;5068293;28;20044;-60
2022/10/15 10:59:53;;;;;;;2.50;0.50;;;20.40;71.70;;;;;;5085981;28;20051;-59
2022/10/15 11:02:19;;;;;;;1.23;0.60;;;20.40;70.50;;;;;;5086082;28;20016;-62
2022/10/15 11:04:46;;;;;;;2.97;0.65;;;20.40;71.20;;;;;;5086132;28;20052;-59
2022/10/15 11:07:11;;;;;;;0.98;0.45;;;20.40;70.90;;;;;;5086127;28;20024;-61
2022/10/15 11:10:07;;;;;;;0.57;0.40;;;20.50;70.40;;;;;;5086136;28;20041;-60
2022/10/15 11:12:55;;;;;;;1.63;0.50;;;20.40;69.90;;;;;;5067874;28;20029;-61
2022/10/15 11:15:34;;;;;;;1.85;0.60;;;20.50;69.00;;;;;;5085692;28;20036;-60
2022/10/15 11:18:38;;;;;;;1.67;0.60;;;20.50;68.50;;;;;;5086090;28;20056;-60
2022/10/15 11:21:30;;;;;;;1.35;0.50;;;20.50;68.50;;;;;;5085851;28;20387;-61
2022/10/15 11:24:18;;;;;;;1.02;0.50;;;20.50;68.00;;;;;;5048241;28;20044;-59
2022/10/15 11:27:14;;;;;;;2.58;0.60;;;20.60;68.50;;;;;;5086000;28;20083;-59
2022/10/15 11:29:59;;;;;;;4.65;0.45;;;20.60;68.30;;;;;;5085119;28;20024;-59
2022/10/15 11:32:36;;;;;;;1.98;0.50;;;20.70;68.10;;;;;;5086011;28;20040;-61
2022/10/15 11:35:20;;;;;;;1.42;0.40;;;20.70;68.50;;;;;;5085646;28;20037;-59
2022/10/15 11:38:14;;;;;;;0.85;0.38;;;20.70;67.60;;;;;;5067580;28;20024;-59
2022/10/15 11:41:01;;;;;;;2.60;0.50;;;20.80;68.00;;;;;;5085797;28;20025;-60
2022/10/15 11:44:14;;;;;;;1.35;0.50;;;20.90;67.80;;;;;;5085737;28;20462;-59
2022/10/15 11:47:07;;;;;;;4.15;0.50;;;20.90;68.10;;;;;;5078185;28;20040;-60
2022/10/15 11:50:04;;;;;;;0.65;0.40;;;21.00;67.80;;;;;;5085684;28;20472;-61
2022/10/15 11:53:06;;;;;;;1.40;0.52;;;21.00;66.30;;;;;;5085556;28;20041;-60
2022/10/15 11:55:43;;;;;;;3.47;0.45;;;21.10;66.60;;;;;;5085744;28;20049;-60
2022/10/15 11:58:27;;;;;;;6.65;0.60;;;21.10;66.80;;;;;;5085622;28;20052;-59
2022/10/15 12:00:59;;;;;;;1.33;0.47;;;21.20;67.50;;;;;;5085981;28;20360;-59
2022/10/15 12:03:32;;;;;;;1.23;0.50;;;21.20;67.00;;;;;;5085668;28;20037;-61
2022/10/15 12:06:05;;;;;;;2.20;0.50;;;21.30;66.20;;;;;;5085814;28;20097;-61
2022/10/15 12:08:36;;;;;;;1.77;0.52;;;21.40;65.40;;;;;;5085716;28;20035;-60
2022/10/15 12:11:10;;;;;;;0.95;0.32;;;21.50;64.20;;;;;;5085621;28;20024;-60
2022/10/15 12:13:45;;;;;;;1.77;0.60;;;21.50;64.30;;;;;;5085417;28;20439;-60
2022/10/15 12:16:41;;;;;;;1.95;0.43;;;21.60;63.60;;;;;;5085737;28;20036;-60
2022/10/15 12:19:17;;;;;;;3.25;0.60;;;21.60;62.60;;;;;;5085430;28;20081;-59
2022/10/15 12:22:05;;;;;;;3.15;0.52;;;21.60;62.40;;;;;;5085628;28;20070;-60
2022/10/15 12:24:37;;;;;;;2.10;0.47;;;21.60;62.10;;;;;;5085733;28;20082;-59
2022/10/15 12:27:33;;;;;;;1.02;0.50;;;21.60;63.30;;;;;;5085151;28;20053;-60
2022/10/15 12:29:59;;;;;;;1.70;0.50;;;21.50;63.30;;;;;;5083915;28;20063;-59
2022/10/15 12:32:26;;;;;;;6.93;0.52;;;21.60;63.60;;;;;;5085294;28;20032;-60
2022/10/15 12:34:55;;;;;;;3.55;0.55;;;21.60;63.70;;;;;;5085315;28;20040;-61
2022/10/15 12:37:23;;;;;;;0.95;0.30;;;21.60;62.50;;;;;;5085469;28;20032;-60
2022/10/15 12:40:02;;;;;;;1.35;0.50;;;21.60;63.70;;;;;;5085225;28;20029;-60
2022/10/15 12:42:33;;;;;;;1.25;0.40;;;21.60;63.00;;;;;;5088590;28;20028;-61
2022/10/15 12:45:04;;;;;;;6.70;0.63;;;21.70;63.60;;;;;;5088918;28;20027;-61
2022/10/15 12:47:54;;;;;;;3.50;0.40;;;21.80;62.90;;;;;;5089144;28;20084;-60
2022/10/15 12:50:29;;;;;;;1.88;0.40;;;21.80;61.90;;;;;;5088811;28;20036;-61
2022/10/15 12:53:06;;;;;;;0.40;0.40;;;21.90;62.30;;;;;;5088419;28;20105;-60
2022/10/15 12:55:36;;;;;;;1.75;0.50;;;22.00;61.80;;;;;;5088374;28;20066;-61
2022/10/15 12:58:04;;;;;;;1.20;0.50;;;22.10;61.80;;;;;;5088520;28;20040;-60
2022/10/15 13:00:33;;;;;;;3.47;0.45;;;22.20;61.60;;;;;;5088582;28;20494;-61
2022/10/15 13:03:21;;;;;;;2.22;0.47;;;22.30;61.70;;;;;;5088409;28;20020;-61
2022/10/15 13:05:49;;;;;;;2.05;0.35;;;22.50;60.40;;;;;;5088251;28;20032;-60
2022/10/15 13:08:25;;;;;;;0.88;0.50;;;22.50;60.60;;;;;;5088170;28;20475;-60
2022/10/15 13:10:57;;;;;;;1.92;0.50;;;22.50;59.50;;;;;;5088632;28;20031;-61